AirNav   Free SoundLink Mini II speaker
 
 372 users online  

56KY Twin Lakes Regional Medical Center Heliport
Leitchfield, Kentucky, USA

GOING TO LEITCHFIELD?


FAA INFORMATION EFFECTIVE 26 MARCH 2020

Location

FAA Identifier: 56KY
Lat/Long: 37-28-19.8100N 086-17-17.4900W
37-28.330167N 086-17.291500W
37.4721694,-86.2881917
(estimated)
Elevation: 657 ft. / 200 m (estimated)
Variation: 03W (2000)
From city: 1 mile SE of LEITCHFIELD, KY
Time zone: UTC -5 (UTC -6 during Standard Time)
Zip code: 42754

Heliport Operations

Heliport use: Private use, MEDICAL USE.
Activation date: 02/2001
Control tower: no
ARTCC: INDIANAPOLIS CENTER
FSS: LOUISVILLE FLIGHT SERVICE STATION
Attendance: UNATNDD
Wind indicator: lighted
Segmented circle: no
Lights: FOR PERIMETER LGTS CALL 270-259-9500 OR RADIO REQ ON 155.340.

Nearby radio navigation aids

VOR radial/distance  VOR name  Freq  Var
MYSr186/(25.4)MYSTIC VOR108.2001W
FTKr211/30.1FORT KNOX VOR/DME109.6001W
EWOr251/30.7NEW HOPE VOR/DME110.8001E
BWGr011/33.4BOWLING GREEN VORTAC117.9002E

 
NDB name  Hdg/Dist  Freq  Var  ID
GODMAN210/32.739603WGOI --. --- ..

Heliport Services

Runway Information

Helipad H1

Dimensions: 50 x 40 ft. / 15 x 12 m
Surface: concrete
Runway edge lights: PERI
Latitude: 37-28.330167N
Longitude: 086-17.291500W
Elevation: 657.0 ft.
Traffic pattern: leftleft

Heliport Ownership and Management from official FAA records

Ownership: Privately-owned
Owner: TWIN LAKES RGNL MEDICAL CENTER
910 WALLACE AVENUE
LEITCHFIELD, KY 42754
Phone 270-259-9400
Manager: CAREY SIMS
910 WALLACE AVENUE
LEITCHFIELD, KY 42754
Phone 270-259-1663

Additional Remarks

FOR CD CTC INDIANAPOLIS ARTCC AT 317-247-2411.

Instrument Procedures

There are no published instrument procedures at 56KY.

Some nearby airports with instrument procedures:

M20 - Leitchfield-Grayson County Airport (5 nm S)
I93 - Breckinridge County Airport (20 nm N)
KEKX - Addington Field Airport (22 nm NE)
KJQD - Ohio County Airport (27 nm W)
KFTK - Godman Army Airfield (30 nm NE)
 
Loc | Ops | Rwys | IFR | FBO | Links
Com | Nav | Svcs | Stats | Notes
Area around 56KY (Twin Lakes Regional Medical Center Heliport)
 
Road maps at: MapQuest Bing Google
 
Aerial photo
No photo
 
Sectional chart

 
Airport distance calculator
Flying to Twin Lakes Regional Medical Center Heliport? Find the distance to fly.

From to 56KY

Sunrise and sunset
Times for 10-Apr-2020
 Local
(UTC-5)
 Zulu
(UTC)
Morning civil twilight05:5010:50
Sunrise06:1711:17
Sunset19:1600:16
Evening civil twilight19:4200:42

Current date and time
Zulu (UTC)  10-Apr-2020 07:30:36
Local (UTC-5)  10-Apr-2020 02:30:36
 
METAR
KEKX 
25nm NE 
100715Z AUTO 32009G20KT 10SM CLR 04/M08 A2998 RMK AO2 T00351081
KFTK 
29nm NE 
100656Z AUTO 32010KT 10SM CLR 04/M06 A2997 RMK AO2 SLP153 T00381065
KGLW 
31nm SE 
100715Z AUTO 32007G14KT 300V360 10SM CLR 05/M03 A2997 RMK AO2 T00521034
KBWG 
31nm S 
100653Z AUTO 32011G21KT 10SM CLR 07/M07 A3000 RMK AO2 SLP156 T00721072
KKY8 
40nm NW 
100715Z AUTO 33009G23KT 10SM CLR 05/M08 A3003 RMK A01
KBRY 
43nm NE 
100715Z AUTO 31007G19KT 10SM CLR 03/M06 A2995 RMK AO1
KM21 
44nm W 
100715Z AUTO 34011G18KT 10SM CLR 04/M09 A3004 RMK AO2 T00411086
KOWB 
44nm W 
100656Z AUTO 33014KT 10SM CLR 05/M07 A3004 RMK AO2 SLP174 T00501072
KAAS 
47nm E 
100715Z AUTO 33007G14KT 10SM SCT090 05/M03 A2999 RMK AO1
TAF
KFTK 
29nm NE 
100610Z 1006/1107 32012KT 9999 BKN050 BKN075 531002 QNH2996INS BECMG 1014/1015 29020G25KT 9999 SKC QNH3006INS BECMG 1017/1018 28010G15KT 9999 SKC QNH3003INS BECMG 1023/1024 26006KT 9999 SKC QNH3004INS TX10/1020Z TN01/1011Z
KBWG 
31nm S 
100520Z 1006/1106 32008G17KT P6SM SCT120 FM100800 33008KT P6SM SCT150 FM101400 34012G17KT P6SM SKC
NOTAMs
Click for the latest NOTAMs
NOTAMs are issued by the DoD/FAA and will open in a separate window not controlled by AirNav.

 

 
 

Would you like to see your business listed on this page?

 If your business provides an interesting product or service to pilots, flight crews, aircraft, or users of the Twin Lakes Regional Medical Center Heliport, you should consider listing it here.  To start the listing process, click on the button below
 
Add a business
 

Other Pages about Twin Lakes Regional Medical Center Heliport

Update a link
 
Copyright © AirNav, LLC. All rights reserved. Privacy Policy  Contact